sensor_id;sensor_type;location;lat;lon;timestamp;pressure;altitude;pressure_sealevel;temperature;humidity
62201;BME280;48197;42.732;27.192;2023-04-28T00:01:35;99912.13;;;8.24;100.00
62201;BME280;48197;42.732;27.192;2023-04-28T00:04:02;99910.09;;;8.17;100.00
62201;BME280;48197;42.732;27.192;2023-04-28T00:06:29;99923.44;;;8.11;100.00
62201;BME280;48197;42.732;27.192;2023-04-28T00:08:56;99919.50;;;8.12;100.00
62201;BME280;48197;42.732;27.192;2023-04-28T00:11:22;99919.13;;;8.14;100.00
62201;BME280;48197;42.732;27.192;2023-04-28T00:13:49;99929.34;;;8.10;100.00
62201;BME280;48197;42.732;27.192;2023-04-28T00:16:16;99931.22;;;8.02;100.00
62201;BME280;48197;42.732;27.192;2023-04-28T00:18:42;99925.19;;;7.82;100.00
62201;BME280;48197;42.732;27.192;2023-04-28T00:21:09;99933.59;;;8.00;100.00
62201;BME280;48197;42.732;27.192;2023-04-28T00:23:35;99917.38;;;7.91;100.00
62201;BME280;48197;42.732;27.192;2023-04-28T00:26:02;99930.72;;;7.86;100.00
62201;BME280;48197;42.732;27.192;2023-04-28T00:28:29;99931.88;;;7.81;100.00
62201;BME280;48197;42.732;27.192;2023-04-28T00:30:56;99938.09;;;7.74;100.00
62201;BME280;48197;42.732;27.192;2023-04-28T00:33:23;99927.78;;;7.64;100.00
62201;BME280;48197;42.732;27.192;2023-04-28T00:35:57;99928.91;;;7.56;100.00
62201;BME280;48197;42.732;27.192;2023-04-28T00:38:23;99932.78;;;7.51;100.00
62201;BME280;48197;42.732;27.192;2023-04-28T00:40:50;99939.81;;;7.49;100.00
62201;BME280;48197;42.732;27.192;2023-04-28T00:43:16;99940.53;;;7.42;100.00
62201;BME280;48197;42.732;27.192;2023-04-28T00:45:43;99941.25;;;7.32;100.00
62201;BME280;48197;42.732;27.192;2023-04-28T00:48:09;99949.41;;;7.25;100.00
62201;BME280;48197;42.732;27.192;2023-04-28T00:50:36;99948.19;;;7.22;100.00
62201;BME280;48197;42.732;27.192;2023-04-28T00:53:02;99945.75;;;7.13;100.00
62201;BME280;48197;42.732;27.192;2023-04-28T00:55:30;99947.59;;;7.02;100.00
62201;BME280;48197;42.732;27.192;2023-04-28T00:57:57;99949.09;;;7.00;100.00
62201;BME280;48197;42.732;27.192;2023-04-28T01:00:25;99944.31;;;6.93;100.00
62201;BME280;48197;42.732;27.192;2023-04-28T01:02:52;99957.16;;;6.82;100.00
62201;BME280;48197;42.732;27.192;2023-04-28T01:05:18;99953.56;;;6.78;100.00
62201;BME280;48197;42.732;27.192;2023-04-28T01:07:45;99952.78;;;6.77;100.00
62201;BME280;48197;42.732;27.192;2023-04-28T01:10:12;99955.09;;;6.75;100.00
62201;BME280;48197;42.732;27.192;2023-04-28T01:12:38;99958.97;;;6.70;100.00
62201;BME280;48197;42.732;27.192;2023-04-28T01:15:05;99962.31;;;6.57;100.00
62201;BME280;48197;42.732;27.192;2023-04-28T01:17:33;99969.00;;;6.59;100.00
62201;BME280;48197;42.732;27.192;2023-04-28T01:19:59;99961.44;;;6.52;100.00
62201;BME280;48197;42.732;27.192;2023-04-28T01:22:26;99962.78;;;6.36;100.00
62201;BME280;48197;42.732;27.192;2023-04-28T01:24:52;99970.75;;;6.18;100.00
62201;BME280;48197;42.732;27.192;2023-04-28T01:27:19;99974.88;;;6.04;100.00
62201;BME280;48197;42.732;27.192;2023-04-28T01:29:45;99979.72;;;5.91;100.00
62201;BME280;48197;42.732;27.192;2023-04-28T01:32:12;99978.03;;;5.83;100.00
62201;BME280;48197;42.732;27.192;2023-04-28T01:34:38;99968.63;;;5.84;100.00
62201;BME280;48197;42.732;27.192;2023-04-28T01:37:05;99978.13;;;5.90;100.00
62201;BME280;48197;42.732;27.192;2023-04-28T01:39:31;99971.34;;;5.84;100.00
62201;BME280;48197;42.732;27.192;2023-04-28T01:41:58;99972.81;;;5.78;100.00
62201;BME280;48197;42.732;27.192;2023-04-28T01:44:24;99979.03;;;5.75;100.00
62201;BME280;48197;42.732;27.192;2023-04-28T01:46:51;99974.66;;;5.70;100.00
62201;BME280;48197;42.732;27.192;2023-04-28T01:49:18;99978.06;;;5.64;100.00
62201;BME280;48197;42.732;27.192;2023-04-28T01:51:45;99981.91;;;5.59;100.00
62201;BME280;48197;42.732;27.192;2023-04-28T01:54:12;99980.66;;;5.57;100.00
62201;BME280;48197;42.732;27.192;2023-04-28T01:56:38;99982.94;;;5.51;100.00
62201;BME280;48197;42.732;27.192;2023-04-28T01:59:05;99972.84;;;5.55;100.00
62201;BME280;48197;42.732;27.192;2023-04-28T02:01:31;99991.00;;;5.63;100.00
62201;BME280;48197;42.732;27.192;2023-04-28T02:03:58;99984.47;;;5.71;100.00
62201;BME280;48197;42.732;27.192;2023-04-28T02:06:25;99983.78;;;5.78;100.00
62201;BME280;48197;42.732;27.192;2023-04-28T02:08:52;99985.72;;;5.74;100.00
62201;BME280;48197;42.732;27.192;2023-04-28T02:11:19;99978.69;;;5.77;100.00
62201;BME280;48197;42.732;27.192;2023-04-28T02:13:46;99980.50;;;5.92;100.00
62201;BME280;48197;42.732;27.192;2023-04-28T02:16:12;99963.22;;;6.11;100.00
62201;BME280;48197;42.732;27.192;2023-04-28T02:18:38;99971.41;;;6.34;100.00
62201;BME280;48197;42.732;27.192;2023-04-28T02:21:11;99970.19;;;6.58;100.00
62201;BME280;48197;42.732;27.192;2023-04-28T02:23:38;99969.97;;;6.74;100.00
62201;BME280;48197;42.732;27.192;2023-04-28T02:26:04;99965.56;;;6.96;100.00
62201;BME280;48197;42.732;27.192;2023-04-28T02:28:30;99969.59;;;7.06;100.00
62201;BME280;48197;42.732;27.192;2023-04-28T02:31:07;99961.75;;;7.04;100.00
62201;BME280;48197;42.732;27.192;2023-04-28T02:33:35;99967.97;;;7.01;100.00
62201;BME280;48197;42.732;27.192;2023-04-28T02:36:02;99959.78;;;7.05;100.00
62201;BME280;48197;42.732;27.192;2023-04-28T02:38:29;99964.53;;;7.08;100.00
62201;BME280;48197;42.732;27.192;2023-04-28T02:40:57;99964.09;;;7.06;100.00
62201;BME280;48197;42.732;27.192;2023-04-28T02:43:24;99960.63;;;7.09;100.00
62201;BME280;48197;42.732;27.192;2023-04-28T02:45:50;99966.53;;;7.11;100.00
62201;BME280;48197;42.732;27.192;2023-04-28T02:48:17;99978.31;;;7.11;99.73
62201;BME280;48197;42.732;27.192;2023-04-28T02:50:43;99976.72;;;7.10;100.00
62201;BME280;48197;42.732;27.192;2023-04-28T02:53:11;99984.47;;;7.01;100.00
62201;BME280;48197;42.732;27.192;2023-04-28T02:55:38;99986.84;;;7.03;98.88
62201;BME280;48197;42.732;27.192;2023-04-28T02:58:04;99994.34;;;7.06;98.37
62201;BME280;48197;42.732;27.192;2023-04-28T03:00:31;100003.19;;;6.92;100.00
62201;BME280;48197;42.732;27.192;2023-04-28T03:02:57;99999.84;;;6.75;100.00
62201;BME280;48197;42.732;27.192;2023-04-28T03:05:24;100003.69;;;6.71;100.00
62201;BME280;48197;42.732;27.192;2023-04-28T03:07:50;100000.16;;;6.70;100.00
62201;BME280;48197;42.732;27.192;2023-04-28T03:10:17;100006.03;;;6.69;100.00
62201;BME280;48197;42.732;27.192;2023-04-28T03:12:43;100005.19;;;6.65;100.00
62201;BME280;48197;42.732;27.192;2023-04-28T03:15:09;100004.75;;;6.63;100.00
62201;BME280;48197;42.732;27.192;2023-04-28T03:17:37;100008.63;;;6.58;100.00
62201;BME280;48197;42.732;27.192;2023-04-28T03:20:07;100003.34;;;6.46;100.00
62201;BME280;48197;42.732;27.192;2023-04-28T03:22:33;100010.31;;;6.40;100.00
62201;BME280;48197;42.732;27.192;2023-04-28T03:25:00;100009.00;;;6.30;100.00
62201;BME280;48197;42.732;27.192;2023-04-28T03:27:27;100012.88;;;6.29;100.00
62201;BME280;48197;42.732;27.192;2023-04-28T03:29:53;100020.94;;;6.18;100.00
62201;BME280;48197;42.732;27.192;2023-04-28T03:32:20;100021.44;;;6.01;100.00
62201;BME280;48197;42.732;27.192;2023-04-28T03:34:47;100022.41;;;5.89;100.00
62201;BME280;48197;42.732;27.192;2023-04-28T03:37:14;100030.50;;;5.82;100.00
62201;BME280;48197;42.732;27.192;2023-04-28T03:39:41;100040.47;;;5.70;100.00
62201;BME280;48197;42.732;27.192;2023-04-28T03:42:07;100042.72;;;5.65;100.00
62201;BME280;48197;42.732;27.192;2023-04-28T03:44:34;100041.81;;;5.57;100.00
62201;BME280;48197;42.732;27.192;2023-04-28T03:47:01;100050.25;;;5.48;100.00
62201;BME280;48197;42.732;27.192;2023-04-28T03:49:27;100050.47;;;5.40;100.00
62201;BME280;48197;42.732;27.192;2023-04-28T03:51:54;100053.06;;;5.32;100.00
62201;BME280;48197;42.732;27.192;2023-04-28T03:54:21;100054.38;;;5.39;100.00
62201;BME280;48197;42.732;27.192;2023-04-28T03:56:47;100062.94;;;5.37;100.00
62201;BME280;48197;42.732;27.192;2023-04-28T03:59:13;100059.28;;;5.29;100.00
62201;BME280;48197;42.732;27.192;2023-04-28T04:01:40;100063.72;;;5.18;100.00
62201;BME280;48197;42.732;27.192;2023-04-28T04:04:06;100064.38;;;5.11;100.00
62201;BME280;48197;42.732;27.192;2023-04-28T04:06:33;100079.16;;;5.07;100.00
62201;BME280;48197;42.732;27.192;2023-04-28T04:09:00;100065.16;;;5.12;100.00
62201;BME280;48197;42.732;27.192;2023-04-28T04:11:26;100076.56;;;5.14;100.00
62201;BME280;48197;42.732;27.192;2023-04-28T04:13:53;100086.91;;;5.21;100.00
62201;BME280;48197;42.732;27.192;2023-04-28T04:16:20;100082.50;;;5.36;100.00
62201;BME280;48197;42.732;27.192;2023-04-28T04:18:47;100084.81;;;5.53;100.00
62201;BME280;48197;42.732;27.192;2023-04-28T04:21:13;100081.75;;;5.78;100.00
62201;BME280;48197;42.732;27.192;2023-04-28T04:23:40;100085.34;;;6.01;100.00
62201;BME280;48197;42.732;27.192;2023-04-28T04:26:07;100080.13;;;6.39;100.00
62201;BME280;48197;42.732;27.192;2023-04-28T04:28:33;100085.34;;;6.74;100.00
62201;BME280;48197;42.732;27.192;2023-04-28T04:31:00;100083.53;;;7.08;100.00
62201;BME280;48197;42.732;27.192;2023-04-28T04:33:28;100084.59;;;7.30;100.00
62201;BME280;48197;42.732;27.192;2023-04-28T04:35:54;100084.38;;;7.46;100.00
62201;BME280;48197;42.732;27.192;2023-04-28T04:38:21;100082.56;;;7.57;100.00
62201;BME280;48197;42.732;27.192;2023-04-28T04:40:48;100081.16;;;7.74;100.00
62201;BME280;48197;42.732;27.192;2023-04-28T04:43:14;100082.56;;;7.95;100.00
62201;BME280;48197;42.732;27.192;2023-04-28T04:45:41;100083.28;;;8.26;98.48
62201;BME280;48197;42.732;27.192;2023-04-28T04:48:07;100085.09;;;8.52;91.02
62201;BME280;48197;42.732;27.192;2023-04-28T04:50:34;100088.41;;;8.75;87.69
62201;BME280;48197;42.732;27.192;2023-04-28T04:53:00;100088.91;;;8.92;85.59
62201;BME280;48197;42.732;27.192;2023-04-28T04:55:27;100092.16;;;9.05;84.70
62201;BME280;48197;42.732;27.192;2023-04-28T04:57:53;100092.63;;;9.17;83.10
62201;BME280;48197;42.732;27.192;2023-04-28T05:00:20;100093.81;;;9.27;80.30
62201;BME280;48197;42.732;27.192;2023-04-28T05:02:46;100099.41;;;9.38;79.89
62201;BME280;48197;42.732;27.192;2023-04-28T05:05:13;100101.88;;;9.61;80.30
62201;BME280;48197;42.732;27.192;2023-04-28T05:07:39;100101.91;;;9.72;76.47
62201;BME280;48197;42.732;27.192;2023-04-28T05:10:05;100101.56;;;9.91;76.02
62201;BME280;48197;42.732;27.192;2023-04-28T05:12:32;100102.78;;;10.01;72.76
62201;BME280;48197;42.732;27.192;2023-04-28T05:14:59;100107.22;;;10.63;71.53
62201;BME280;48197;42.732;27.192;2023-04-28T05:17:26;100101.66;;;10.99;69.34
62201;BME280;48197;42.732;27.192;2023-04-28T05:19:52;100103.22;;;11.00;65.92
62201;BME280;48197;42.732;27.192;2023-04-28T05:22:19;100109.53;;;11.04;65.49
62201;BME280;48197;42.732;27.192;2023-04-28T05:24:46;100113.44;;;11.17;64.19
62201;BME280;48197;42.732;27.192;2023-04-28T05:27:15;100124.16;;;10.97;57.24
62201;BME280;48197;42.732;27.192;2023-04-28T05:29:41;100115.44;;;11.06;57.34
62201;BME280;48197;42.732;27.192;2023-04-28T05:32:07;100113.88;;;10.98;55.07
62201;BME280;48197;42.732;27.192;2023-04-28T05:34:34;100121.41;;;10.69;55.18
62201;BME280;48197;42.732;27.192;2023-04-28T05:37:01;100128.50;;;10.66;56.43
62201;BME280;48197;42.732;27.192;2023-04-28T05:39:27;100126.94;;;10.61;55.97
62201;BME280;48197;42.732;27.192;2023-04-28T05:41:54;100132.06;;;10.67;56.92
62201;BME280;48197;42.732;27.192;2023-04-28T05:44:20;100130.09;;;10.81;57.42
62201;BME280;48197;42.732;27.192;2023-04-28T05:46:46;100130.06;;;10.96;56.83
62201;BME280;48197;42.732;27.192;2023-04-28T05:49:13;100135.22;;;11.08;56.41
62201;BME280;48197;42.732;27.192;2023-04-28T05:51:39;100127.69;;;10.94;53.82
62201;BME280;48197;42.732;27.192;2023-04-28T05:54:06;100134.03;;;11.02;55.67
62201;BME280;48197;42.732;27.192;2023-04-28T05:56:32;100124.53;;;11.10;54.17
62201;BME280;48197;42.732;27.192;2023-04-28T05:58:59;100127.66;;;11.27;54.28
62201;BME280;48197;42.732;27.192;2023-04-28T06:01:29;100124.44;;;11.39;54.58
62201;BME280;48197;42.732;27.192;2023-04-28T06:03:57;100136.66;;;11.63;55.76
62201;BME280;48197;42.732;27.192;2023-04-28T06:06:24;100141.75;;;11.68;51.79
62201;BME280;48197;42.732;27.192;2023-04-28T06:08:51;100132.50;;;12.07;48.51
62201;BME280;48197;42.732;27.192;2023-04-28T06:11:17;100132.97;;;12.99;48.12
62201;BME280;48197;42.732;27.192;2023-04-28T06:13:47;100135.28;;;14.38;45.28
62201;BME280;48197;42.732;27.192;2023-04-28T06:16:15;100125.91;;;15.03;39.35
62201;BME280;48197;42.732;27.192;2023-04-28T06:18:42;100143.72;;;15.49;38.33
62201;BME280;48197;42.732;27.192;2023-04-28T06:21:08;100130.44;;;15.57;37.05
62201;BME280;48197;42.732;27.192;2023-04-28T06:23:35;100124.03;;;15.60;35.64
62201;BME280;48197;42.732;27.192;2023-04-28T06:26:03;100141.28;;;15.51;36.43
62201;BME280;48197;42.732;27.192;2023-04-28T06:28:29;100128.56;;;14.63;36.81
62201;BME280;48197;42.732;27.192;2023-04-28T06:30:57;100141.44;;;15.24;37.12
62201;BME280;48197;42.732;27.192;2023-04-28T06:33:25;100137.75;;;15.90;37.33
62201;BME280;48197;42.732;27.192;2023-04-28T06:35:52;100149.19;;;16.12;34.05
62201;BME280;48197;42.732;27.192;2023-04-28T06:38:18;100145.50;;;15.59;35.87
62201;BME280;48197;42.732;27.192;2023-04-28T06:40:45;100132.22;;;15.27;35.99
62201;BME280;48197;42.732;27.192;2023-04-28T06:43:12;100140.00;;;14.92;36.03
62201;BME280;48197;42.732;27.192;2023-04-28T06:45:39;100142.94;;;15.28;37.67
62201;BME280;48197;42.732;27.192;2023-04-28T06:48:05;100144.56;;;15.26;37.56
62201;BME280;48197;42.732;27.192;2023-04-28T06:50:32;100147.22;;;14.89;37.88
62201;BME280;48197;42.732;27.192;2023-04-28T06:52:59;100145.00;;;13.65;36.91
62201;BME280;48197;42.732;27.192;2023-04-28T06:55:26;100135.84;;;13.68;38.67
62201;BME280;48197;42.732;27.192;2023-04-28T07:10:05;100133.75;;;15.08;36.78
62201;BME280;48197;42.732;27.192;2023-04-28T07:12:32;100147.13;;;16.17;35.62
62201;BME280;48197;42.732;27.192;2023-04-28T07:14:59;100142.19;;;16.24;34.42
62201;BME280;48197;42.732;27.192;2023-04-28T07:17:25;100139.41;;;16.24;34.41
62201;BME280;48197;42.732;27.192;2023-04-28T07:19:52;100152.72;;;16.86;34.67
62201;BME280;48197;42.732;27.192;2023-04-28T07:22:18;100142.28;;;16.70;32.59
62201;BME280;48197;42.732;27.192;2023-04-28T07:24:44;100137.47;;;16.21;33.85
62201;BME280;48197;42.732;27.192;2023-04-28T07:27:11;100126.53;;;16.10;35.00
62201;BME280;48197;42.732;27.192;2023-04-28T07:38:59;100116.84;;;16.51;35.36
62201;BME280;48197;42.732;27.192;2023-04-28T07:42:04;100117.03;;;18.07;33.06
62201;BME280;48197;42.732;27.192;2023-04-28T07:44:31;100120.59;;;15.52;34.34
62201;BME280;48197;42.732;27.192;2023-04-28T07:46:58;100115.69;;;13.91;36.91
62201;BME280;48197;42.732;27.192;2023-04-28T07:49:25;100135.28;;;13.46;38.68
62201;BME280;48197;42.732;27.192;2023-04-28T07:51:52;100138.44;;;13.48;38.17
62201;BME280;48197;42.732;27.192;2023-04-28T07:54:20;100120.53;;;14.68;35.83
62201;BME280;48197;42.732;27.192;2023-04-28T07:56:46;100114.28;;;16.24;34.86
62201;BME280;48197;42.732;27.192;2023-04-28T07:59:13;100117.19;;;17.32;31.66
62201;BME280;48197;42.732;27.192;2023-04-28T08:01:39;100114.25;;;18.07;31.63
62201;BME280;48197;42.732;27.192;2023-04-28T08:04:05;100123.97;;;18.28;30.74
62201;BME280;48197;42.732;27.192;2023-04-28T08:06:32;100117.59;;;17.89;30.82
62201;BME280;48197;42.732;27.192;2023-04-28T08:08:59;100100.78;;;16.23;32.30
62201;BME280;48197;42.732;27.192;2023-04-28T08:11:27;100107.56;;;15.05;35.29
62201;BME280;48197;42.732;27.192;2023-04-28T08:13:54;100107.03;;;14.67;35.03
62201;BME280;48197;42.732;27.192;2023-04-28T08:16:26;100113.16;;;14.04;35.88
62201;BME280;48197;42.732;27.192;2023-04-28T08:18:52;100113.16;;;13.73;36.79
62201;BME280;48197;42.732;27.192;2023-04-28T08:21:19;100111.88;;;13.81;36.74
62201;BME280;48197;42.732;27.192;2023-04-28T08:23:46;100100.13;;;14.24;36.20
62201;BME280;48197;42.732;27.192;2023-04-28T08:26:12;100093.06;;;14.70;36.71
62201;BME280;48197;42.732;27.192;2023-04-28T08:28:39;100086.72;;;14.94;35.32
62201;BME280;48197;42.732;27.192;2023-04-28T08:31:05;100101.53;;;14.87;35.60
62201;BME280;48197;42.732;27.192;2023-04-28T08:33:32;100103.22;;;14.03;35.79
62201;BME280;48197;42.732;27.192;2023-04-28T08:35:59;100098.00;;;14.83;36.82
62201;BME280;48197;42.732;27.192;2023-04-28T08:38:25;100097.34;;;15.99;35.62
62201;BME280;48197;42.732;27.192;2023-04-28T08:40:52;100091.97;;;16.41;32.98
62201;BME280;48197;42.732;27.192;2023-04-28T08:43:19;100085.88;;;16.62;34.42
62201;BME280;48197;42.732;27.192;2023-04-28T08:45:46;100084.09;;;15.46;32.58
62201;BME280;48197;42.732;27.192;2023-04-28T08:48:20;100086.09;;;14.59;35.18
62201;BME280;48197;42.732;27.192;2023-04-28T08:50:50;100074.91;;;13.84;35.39
62201;BME280;48197;42.732;27.192;2023-04-28T08:53:23;100088.50;;;15.64;35.54
62201;BME280;48197;42.732;27.192;2023-04-28T08:55:54;100085.06;;;15.96;33.74
62201;BME280;48197;42.732;27.192;2023-04-28T08:58:24;100091.88;;;15.15;34.48
62201;BME280;48197;42.732;27.192;2023-04-28T09:00:51;100087.31;;;15.25;35.33
62201;BME280;48197;42.732;27.192;2023-04-28T09:03:18;100088.28;;;14.95;35.20
62201;BME280;48197;42.732;27.192;2023-04-28T09:05:45;100094.19;;;14.97;35.39
62201;BME280;48197;42.732;27.192;2023-04-28T09:08:12;100088.16;;;15.42;34.16
62201;BME280;48197;42.732;27.192;2023-04-28T09:10:39;100090.75;;;15.73;33.17
62201;BME280;48197;42.732;27.192;2023-04-28T09:13:06;100081.22;;;15.90;33.91
62201;BME280;48197;42.732;27.192;2023-04-28T09:15:36;100075.56;;;14.70;34.64
62201;BME280;48197;42.732;27.192;2023-04-28T09:18:03;100082.31;;;13.95;35.31
62201;BME280;48197;42.732;27.192;2023-04-28T09:20:35;100073.63;;;13.62;35.81
62201;BME280;48197;42.732;27.192;2023-04-28T09:23:22;100060.19;;;13.22;36.47
62201;BME280;48197;42.732;27.192;2023-04-28T09:26:04;100082.22;;;13.40;37.29
62201;BME280;48197;42.732;27.192;2023-04-28T09:28:34;100075.53;;;13.68;35.57
62201;BME280;48197;42.732;27.192;2023-04-28T09:31:00;100076.06;;;13.56;35.38
62201;BME280;48197;42.732;27.192;2023-04-28T09:33:28;100067.28;;;13.61;36.33
62201;BME280;48197;42.732;27.192;2023-04-28T09:35:54;100084.44;;;13.83;36.88
62201;BME280;48197;42.732;27.192;2023-04-28T09:38:21;100078.09;;;14.10;36.00
62201;BME280;48197;42.732;27.192;2023-04-28T10:09:14;100049.25;;;15.38;36.87
62201;BME280;48197;42.732;27.192;2023-04-28T10:11:42;100045.25;;;15.39;35.44
62201;BME280;48197;42.732;27.192;2023-04-28T10:14:09;100059.09;;;15.23;36.73
62201;BME280;48197;42.732;27.192;2023-04-28T10:16:36;100055.25;;;15.37;35.84
62201;BME280;48197;42.732;27.192;2023-04-28T10:19:03;100046.19;;;15.32;35.55
62201;BME280;48197;42.732;27.192;2023-04-28T10:21:31;100051.25;;;15.38;35.12
62201;BME280;48197;42.732;27.192;2023-04-28T10:24:09;100059.75;;;15.30;35.67
62201;BME280;48197;42.732;27.192;2023-04-28T10:26:53;100043.56;;;14.62;34.40
62201;BME280;48197;42.732;27.192;2023-04-28T10:29:27;100045.09;;;14.39;35.76
62201;BME280;48197;42.732;27.192;2023-04-28T10:34:40;100037.59;;;14.13;35.82
62201;BME280;48197;42.732;27.192;2023-04-28T10:37:07;100042.91;;;14.27;37.74
62201;BME280;48197;42.732;27.192;2023-04-28T10:39:37;100053.38;;;14.90;36.15
62201;BME280;48197;42.732;27.192;2023-04-28T10:42:04;100039.09;;;15.08;35.86
62201;BME280;48197;42.732;27.192;2023-04-28T10:47:01;100054.31;;;15.03;35.88
62201;BME280;48197;42.732;27.192;2023-04-28T10:57:45;100040.84;;;15.22;34.35
62201;BME280;48197;42.732;27.192;2023-04-28T11:00:27;100048.59;;;15.50;34.34
62201;BME280;48197;42.732;27.192;2023-04-28T11:02:55;100046.72;;;15.84;35.13
62201;BME280;48197;42.732;27.192;2023-04-28T11:05:22;100049.41;;;15.67;34.80
62201;BME280;48197;42.732;27.192;2023-04-28T11:13:27;100042.84;;;15.21;34.37
62201;BME280;48197;42.732;27.192;2023-04-28T11:16:03;100051.00;;;15.68;34.50
62201;BME280;48197;42.732;27.192;2023-04-28T11:18:51;100048.97;;;15.89;33.96
62201;BME280;48197;42.732;27.192;2023-04-28T11:21:17;100055.03;;;15.07;35.89
62201;BME280;48197;42.732;27.192;2023-04-28T11:23:44;100052.66;;;14.86;36.14
62201;BME280;48197;42.732;27.192;2023-04-28T11:26:13;100048.47;;;14.74;35.42
62201;BME280;48197;42.732;27.192;2023-04-28T11:28:47;100053.81;;;14.65;34.57
62201;BME280;48197;42.732;27.192;2023-04-28T11:31:14;100050.03;;;14.55;36.02
62201;BME280;48197;42.732;27.192;2023-04-28T11:33:45;100054.03;;;14.74;35.59
62201;BME280;48197;42.732;27.192;2023-04-28T11:36:27;100038.38;;;16.33;35.18
62201;BME280;48197;42.732;27.192;2023-04-28T11:38:53;100037.13;;;17.54;33.76
62201;BME280;48197;42.732;27.192;2023-04-28T11:41:21;100044.88;;;16.76;32.86
62201;BME280;48197;42.732;27.192;2023-04-28T11:43:48;100046.84;;;15.77;33.39
62201;BME280;48197;42.732;27.192;2023-04-28T11:46:19;100025.34;;;15.01;35.24
62201;BME280;48197;42.732;27.192;2023-04-28T11:48:45;100041.81;;;14.92;36.46
62201;BME280;48197;42.732;27.192;2023-04-28T11:51:30;100045.44;;;15.48;35.53
62201;BME280;48197;42.732;27.192;2023-04-28T11:53:58;100041.63;;;15.79;35.17
62201;BME280;48197;42.732;27.192;2023-04-28T11:56:25;100045.44;;;15.68;33.78
62201;BME280;48197;42.732;27.192;2023-04-28T11:59:03;100051.13;;;15.45;34.64
62201;BME280;48197;42.732;27.192;2023-04-28T12:01:31;100050.59;;;15.10;35.35
62201;BME280;48197;42.732;27.192;2023-04-28T12:03:58;100055.56;;;14.79;35.36
62201;BME280;48197;42.732;27.192;2023-04-28T12:06:25;100046.16;;;14.93;35.41
62201;BME280;48197;42.732;27.192;2023-04-28T12:08:52;100042.72;;;14.85;34.47
62201;BME280;48197;42.732;27.192;2023-04-28T12:11:18;100042.19;;;15.90;33.67
62201;BME280;48197;42.732;27.192;2023-04-28T12:16:38;100035.00;;;16.09;32.94
62201;BME280;48197;42.732;27.192;2023-04-28T12:19:09;100034.94;;;15.36;35.69
62201;BME280;48197;42.732;27.192;2023-04-28T12:21:37;100038.31;;;15.27;34.71
62201;BME280;48197;42.732;27.192;2023-04-28T12:24:13;100042.69;;;15.28;34.41
62201;BME280;48197;42.732;27.192;2023-04-28T12:26:40;100025.41;;;14.97;34.29
62201;BME280;48197;42.732;27.192;2023-04-28T12:29:07;100037.41;;;14.94;35.72
62201;BME280;48197;42.732;27.192;2023-04-28T12:31:51;100040.06;;;14.54;35.42
62201;BME280;48197;42.732;27.192;2023-04-28T12:34:18;100037.03;;;15.12;34.54
62201;BME280;48197;42.732;27.192;2023-04-28T12:36:44;100030.00;;;16.17;33.03
62201;BME280;48197;42.732;27.192;2023-04-28T12:39:14;100033.97;;;16.81;33.01
62201;BME280;48197;42.732;27.192;2023-04-28T12:41:42;100030.38;;;16.35;32.37
62201;BME280;48197;42.732;27.192;2023-04-28T12:44:09;100044.97;;;15.90;34.06
62201;BME280;48197;42.732;27.192;2023-04-28T12:46:36;100033.09;;;15.49;33.92
62201;BME280;48197;42.732;27.192;2023-04-28T12:49:02;100028.16;;;15.57;34.94
62201;BME280;48197;42.732;27.192;2023-04-28T12:51:29;100026.97;;;16.44;33.90
62201;BME280;48197;42.732;27.192;2023-04-28T12:53:56;100031.97;;;17.53;32.42
62201;BME280;48197;42.732;27.192;2023-04-28T12:56:23;100027.69;;;16.77;30.67
62201;BME280;48197;42.732;27.192;2023-04-28T12:58:53;100012.81;;;15.49;32.87
62201;BME280;48197;42.732;27.192;2023-04-28T13:01:19;100020.91;;;15.80;33.23
62201;BME280;48197;42.732;27.192;2023-04-28T13:03:46;100017.84;;;15.74;33.53
62201;BME280;48197;42.732;27.192;2023-04-28T13:06:13;100013.28;;;16.33;33.23
62201;BME280;48197;42.732;27.192;2023-04-28T13:08:40;100010.91;;;17.90;32.53
62201;BME280;48197;42.732;27.192;2023-04-28T13:11:07;100018.91;;;17.50;30.76
62201;BME280;48197;42.732;27.192;2023-04-28T13:13:33;100011.13;;;16.86;32.01
62201;BME280;48197;42.732;27.192;2023-04-28T13:15:59;100014.41;;;17.52;32.43
62201;BME280;48197;42.732;27.192;2023-04-28T13:18:25;99986.91;;;18.28;31.44
62201;BME280;48197;42.732;27.192;2023-04-28T13:20:52;99996.56;;;18.01;31.36
62201;BME280;48197;42.732;27.192;2023-04-28T13:23:18;100007.72;;;17.50;30.19
62201;BME280;48197;42.732;27.192;2023-04-28T13:25:45;100000.22;;;17.47;31.49
62201;BME280;48197;42.732;27.192;2023-04-28T13:28:11;100004.69;;;18.21;32.21
62201;BME280;48197;42.732;27.192;2023-04-28T13:30:38;99998.28;;;17.31;31.28
62201;BME280;48197;42.732;27.192;2023-04-28T13:33:05;99997.94;;;16.41;33.66
62201;BME280;48197;42.732;27.192;2023-04-28T13:35:32;99994.97;;;16.32;34.62
62201;BME280;48197;42.732;27.192;2023-04-28T13:37:59;100000.31;;;16.88;33.98
62201;BME280;48197;42.732;27.192;2023-04-28T13:40:28;100002.88;;;16.50;34.75
62201;BME280;48197;42.732;27.192;2023-04-28T13:42:55;100001.25;;;15.87;31.54
62201;BME280;48197;42.732;27.192;2023-04-28T13:45:21;99991.78;;;15.64;34.05
62201;BME280;48197;42.732;27.192;2023-04-28T13:47:48;99993.28;;;14.93;35.00
62201;BME280;48197;42.732;27.192;2023-04-28T13:50:16;99989.66;;;14.28;35.37
62201;BME280;48197;42.732;27.192;2023-04-28T13:52:43;99988.94;;;14.01;36.88
62201;BME280;48197;42.732;27.192;2023-04-28T13:55:09;99996.97;;;13.68;36.24
62201;BME280;48197;42.732;27.192;2023-04-28T13:57:36;99999.09;;;13.26;37.35